X  Close Metar Aviation Weather Data     EGJJ Jersey Airport
Temperature
15°C Temperature
11°C Dewpoint
77% Humidity



Wind
35 KM/H
22 MPH
10 M/S
19 KTS



280°
West
Current Conditions

Light Rain Light Rain
Pressure 1004.92 (hPa) - 29.68 (inHg)
Visibility 6.2 (mile) - 10 (km)
Airport
Airport-code EGJJ

Location: Jersey Airport
Distance: 14 (km)

Metar:
EGJJ 271320Z 28019KT 9999 -RA FEW019 SCT022 15/11 Q1005

Time: 27-09-2022 14:20 BST